Time;durP1;ratioP1;P1;durP2;ratioP2;P2;SDS_P1;SDS_P2;PMS_P1;PMS_P2;Temp;Humidity;BMP_temperature;BMP_pressure;BME280_temperature;BME280_humidity;BME280_pressure;Samples;Min_cycle;Max_cycle;Signal;HPM_P1;HPM_P2
2023/12/13 00:01:25;;;;;;;59.63;26.77;;;;;;;-141.97;100.00;46250.78;4993963;28;20919;-86
2023/12/13 00:03:51;;;;;;;60.77;26.30;;;;;;;-141.97;100.00;46727.28;4994135;28;20163;-86
2023/12/13 00:06:17;;;;;;;61.23;27.23;;;;;;;-141.97;100.00;46606.22;4993634;28;20583;-86
2023/12/13 00:08:42;;;;;;;81.50;33.40;;;;;;;-141.97;100.00;46239.25;4993584;28;20403;-86
2023/12/13 00:11:08;;;;;;;75.17;30.63;;;;;;;-141.97;100.00;46508.22;4993766;28;20167;-86
2023/12/13 00:13:34;;;;;;;65.20;27.17;;;;;;;-141.97;100.00;46289.19;4993688;28;20163;-86
2023/12/13 00:16:03;;;;;;;63.53;26.63;;;;;;;-141.97;100.00;46485.19;4975922;28;20172;-86
2023/12/13 00:18:29;;;;;;;68.43;28.37;;;;;;;-141.97;100.00;46604.31;4993397;28;20407;-87
2023/12/13 00:20:54;;;;;;;65.97;28.10;;;;;;;-141.97;100.00;46200.81;4977085;28;20497;-87
2023/12/13 00:23:20;;;;;;;64.43;27.23;;;;;;;-141.97;100.00;46081.69;4993948;28;20171;-86
2023/12/13 00:25:45;;;;;;;63.80;27.83;;;;;;;-141.97;100.00;46273.81;4994198;28;20643;-87
2023/12/13 00:28:11;;;;;;;59.63;27.33;;;;;;;-141.97;100.00;46281.50;4993642;28;20175;-88
2023/12/13 00:30:36;;;;;;;63.37;26.70;;;;;;;-141.97;100.00;46631.22;4993313;28;20172;-88
2023/12/13 00:33:02;;;;;;;67.60;28.73;;;;;;;-141.97;100.00;46665.78;4993069;28;20695;-86
2023/12/13 00:35:27;;;;;;;61.07;27.03;;;;;;;-141.97;100.00;46508.22;4993323;28;20251;-87
2023/12/13 00:37:54;;;;;;;59.47;27.33;;;;;;;-141.97;100.00;46258.44;4975967;28;20179;-88
2023/12/13 00:40:22;;;;;;;66.63;29.20;;;;;;;-141.97;100.00;46027.91;4992976;28;20198;-87
2023/12/13 00:42:48;;;;;;;64.67;29.60;;;;;;;-141.97;100.00;46166.22;4975895;28;20534;-87
2023/12/13 00:45:14;;;;;;;67.57;29.90;;;;;;;-141.97;100.00;46120.13;4993408;28;20544;-88
2023/12/13 00:47:40;;;;;;;72.73;30.67;;;;;;;-141.97;100.00;46492.88;4975291;28;20621;-87
2023/12/13 00:50:06;;;;;;;67.80;29.93;;;;;;;-141.97;100.00;46738.81;4993135;28;20415;-88
2023/12/13 00:52:32;;;;;;;70.10;30.10;;;;;;;-141.97;100.00;46266.13;4992286;28;20219;-88
2023/12/13 00:55:00;;;;;;;61.03;29.03;;;;;;;-141.97;100.00;46252.69;4975352;28;20427;-88
2023/12/13 00:57:26;;;;;;;67.40;30.50;;;;;;;-141.97;100.00;46619.69;4992869;28;20255;-88
2023/12/13 00:59:52;;;;;;;67.60;29.83;;;;;;;-141.97;100.00;46158.53;4975253;28;20429;-87
2023/12/13 01:02:17;;;;;;;70.40;29.87;;;;;;;-141.97;100.00;46304.56;4976048;28;20419;-87
2023/12/13 01:04:44;;;;;;;63.50;29.17;;;;;;;-141.97;100.00;46289.19;4978980;28;20178;-86
2023/12/13 01:07:10;;;;;;;63.10;27.57;;;;;;;-141.97;100.00;46487.09;5010234;28;20195;-86
2023/12/13 01:09:36;;;;;;;69.53;30.20;;;;;;;-141.97;100.00;46093.22;4992603;28;20430;-87
2023/12/13 01:12:02;;;;;;;70.00;29.43;;;;;;;-141.97;100.00;46552.44;4992826;28;20168;-87
2023/12/13 01:14:27;;;;;;;78.27;31.03;;;;;;;-141.97;100.00;46047.13;4992949;28;20255;-86
2023/12/13 01:16:53;;;;;;;96.97;41.00;;;;;;;-141.97;100.00;46285.34;4975040;28;20568;-86
2023/12/13 01:19:18;;;;;;;82.43;34.67;;;;;;;-141.97;100.00;46279.59;4959514;28;20218;-85
2023/12/13 01:21:44;;;;;;;64.77;28.90;;;;;;;-141.97;100.00;45922.25;4992920;28;20175;-87
2023/12/13 01:24:09;;;;;;;58.57;26.50;;;;;;;-141.97;100.00;46269.97;4975430;28;20265;-88
2023/12/13 01:26:34;;;;;;;54.83;25.90;;;;;;;-141.97;100.00;46112.44;4975027;28;20211;-86
2023/12/13 01:29:00;;;;;;;58.83;26.07;;;;;;;-141.97;100.00;46598.53;4992639;28;20172;-87
2023/12/13 01:31:25;;;;;;;55.53;27.43;;;;;;;-141.97;100.00;46120.13;4992041;28;20173;-86
2023/12/13 01:33:51;;;;;;;69.33;26.00;;;;;;;-141.97;100.00;46068.25;4993761;28;20175;-87
2023/12/13 01:36:16;;;;;;;65.20;28.93;;;;;;;-141.97;100.00;46304.56;4994004;28;20168;-86
2023/12/13 01:38:41;;;;;;;62.20;30.10;;;;;;;-141.97;100.00;46310.31;4993832;28;20190;-87
2023/12/13 01:41:07;;;;;;;75.73;32.03;;;;;;;-141.97;100.00;46173.91;4993340;28;20606;-86
2023/12/13 01:43:32;;;;;;;71.23;31.60;;;;;;;-141.97;100.00;46139.34;4975552;28;20694;-85
2023/12/13 01:45:58;;;;;;;80.40;33.77;;;;;;;-141.97;100.00;46066.31;4977332;28;20268;-86
2023/12/13 01:48:25;;;;;;;82.73;35.07;;;;;;;-141.97;100.00;46296.88;4996999;28;20182;-87
2023/12/13 01:50:53;;;;;;;66.83;30.73;;;;;;;-141.97;100.00;46127.81;4985331;28;20415;-87
2023/12/13 01:53:19;;;;;;;67.60;28.77;;;;;;;-141.97;100.00;46734.97;4992845;28;20465;-86
2023/12/13 01:55:45;;;;;;;60.20;26.80;;;;;;;-141.97;100.00;46068.25;4975298;28;20422;-86
2023/12/13 01:58:11;;;;;;;63.50;28.17;;;;;;;-141.97;100.00;46269.97;4975161;28;20224;-87
2023/12/13 02:00:39;;;;;;;62.07;27.50;;;;;;;-141.97;100.00;46525.53;4992149;28;20442;-87
2023/12/13 02:03:04;;;;;;;58.03;27.70;;;;;;;-141.97;100.00;46596.63;4992283;28;20862;-87
2023/12/13 02:05:32;;;;;;;66.80;28.37;;;;;;;-141.97;100.00;46289.19;4991992;28;20468;-87
2023/12/13 02:07:57;;;;;;;60.13;27.50;;;;;;;-141.97;100.00;46047.13;4974361;28;20398;-85
2023/12/13 02:10:23;;;;;;;61.63;27.17;;;;;;;-141.97;100.00;46581.25;4992232;28;20922;-85
2023/12/13 02:12:48;;;;;;;60.00;27.07;;;;;;;-141.97;100.00;46669.63;4991953;28;20605;-84
2023/12/13 02:15:14;;;;;;;57.33;27.10;;;;;;;-141.97;100.00;46004.84;4991893;28;20199;-85
2023/12/13 02:17:50;;;;;;;62.57;28.90;;;;;;;-141.97;100.00;46097.06;4991520;28;20225;-88
2023/12/13 02:20:15;;;;;;;59.13;28.37;;;;;;;-141.97;100.00;46221.94;4974617;28;20565;-87
2023/12/13 02:22:40;;;;;;;59.03;27.80;;;;;;;-141.97;100.00;46089.38;4974961;28;20427;-87
2023/12/13 02:25:13;;;;;;;60.37;27.47;;;;;;;-141.97;100.00;46385.25;4974622;28;20189;-89
2023/12/13 02:27:39;;;;;;;61.93;28.70;;;;;;;-141.97;100.00;46139.34;4974781;28;20215;-87
2023/12/13 02:30:06;;;;;;;60.70;27.00;;;;;;;-141.97;100.00;46698.47;4974407;28;20856;-88
2023/12/13 02:32:32;;;;;;;62.73;28.40;;;;;;;-141.97;100.00;46131.66;4991922;28;20663;-88
2023/12/13 02:34:57;;;;;;;75.33;30.27;;;;;;;-141.97;100.00;46150.84;4992095;28;20415;-89
2023/12/13 02:37:23;;;;;;;74.20;30.70;;;;;;;-141.97;100.00;46448.66;4975663;28;20171;-89
2023/12/13 02:39:49;;;;;;;60.37;26.03;;;;;;;-141.97;100.00;46312.25;4975530;28;20203;-88
2023/12/13 02:42:15;;;;;;;56.90;26.13;;;;;;;-141.97;100.00;46114.34;4975406;28;20931;-88
2023/12/13 02:44:42;;;;;;;54.80;24.13;;;;;;;-141.97;100.00;46020.22;4976854;28;20176;-88
2023/12/13 02:47:10;;;;;;;49.90;21.83;;;;;;;-141.97;100.00;46281.50;4981179;28;20655;-89
2023/12/13 02:49:36;;;;;;;52.53;22.40;;;;;;;-141.97;100.00;46623.53;4995069;28;20500;-89
2023/12/13 02:52:01;;;;;;;52.03;22.37;;;;;;;-141.97;100.00;46275.75;4989775;28;20466;-88
2023/12/13 02:54:26;;;;;;;54.47;21.27;;;;;;;-141.97;100.00;46139.34;5014933;28;20612;-88
2023/12/13 02:56:52;;;;;;;51.83;20.43;;;;;;;-141.97;100.00;46681.16;5013103;28;20175;-88
2023/12/13 02:59:17;;;;;;;49.57;20.53;;;;;;;-141.97;100.00;46279.59;4981047;28;20179;-89
2023/12/13 03:01:43;;;;;;;42.87;18.53;;;;;;;-141.97;100.00;46158.53;4978447;28;20211;-89
2023/12/13 03:04:08;;;;;;;45.00;19.50;;;;;;;-141.97;100.00;46268.06;4977218;28;20186;-89
2023/12/13 03:06:33;;;;;;;42.33;19.43;;;;;;;-141.97;100.00;46316.09;4991581;28;20207;-88
2023/12/13 03:08:59;;;;;;;41.87;17.77;;;;;;;-141.97;100.00;46335.31;4991637;28;20176;-85
2023/12/13 03:11:24;;;;;;;33.77;16.07;;;;;;;-141.97;100.00;46260.38;4993137;28;20171;-84
2023/12/13 03:13:50;;;;;;;34.47;15.63;;;;;;;-141.97;100.00;46139.34;4978088;28;20183;-84
2023/12/13 03:16:16;;;;;;;34.00;15.43;;;;;;;-141.97;100.00;46191.22;5004222;28;20580;-86
2023/12/13 03:18:41;;;;;;;40.93;17.20;;;;;;;-141.97;100.00;46746.50;5003138;28;20179;-85
2023/12/13 03:21:07;;;;;;;34.23;14.80;;;;;;;-141.97;100.00;46127.81;4977832;28;20242;-84
2023/12/13 03:23:32;;;;;;;31.80;14.40;;;;;;;-141.97;100.00;46506.31;4994776;28;20176;-84
2023/12/13 03:25:57;;;;;;;46.93;19.27;;;;;;;-141.97;100.00;46010.63;4995462;28;20616;-84
2023/12/13 03:28:23;;;;;;;43.47;19.33;;;;;;;-141.97;100.00;46312.25;4994961;28;20168;-86
2023/12/13 03:30:48;;;;;;;36.00;16.73;;;;;;;-141.97;100.00;46550.50;4995268;28;20175;-84
2023/12/13 03:33:14;;;;;;;33.53;16.37;;;;;;;-141.97;100.00;46141.25;4995442;28;20238;-85
2023/12/13 03:35:39;;;;;;;36.93;16.93;;;;;;;-141.97;100.00;46575.50;4995034;28;20160;-84
2023/12/13 03:38:05;;;;;;;35.33;15.93;;;;;;;-141.97;100.00;46160.47;4995060;28;20625;-84
2023/12/13 03:40:31;;;;;;;36.27;15.20;;;;;;;-141.97;100.00;46550.50;4995396;28;20588;-85
2023/12/13 03:42:56;;;;;;;35.43;16.67;;;;;;;-141.97;100.00;46546.66;4995137;28;20410;-84
2023/12/13 03:45:23;;;;;;;75.27;32.33;;;;;;;-141.97;100.00;46300.72;4994698;28;20202;-84
2023/12/13 03:47:49;;;;;;;64.23;28.93;;;;;;;-141.97;100.00;46273.81;4994525;28;20172;-84
2023/12/13 03:50:14;;;;;;;64.13;29.13;;;;;;;-141.97;100.00;46312.25;4977205;28;20431;-84
2023/12/13 03:52:40;;;;;;;60.33;26.13;;;;;;;-141.97;100.00;46296.88;4995442;28;20270;-85
2023/12/13 03:55:06;;;;;;;60.07;25.80;;;;;;;-141.97;100.00;46289.19;4994694;28;20168;-85
2023/12/13 03:57:32;;;;;;;50.37;23.90;;;;;;;-141.97;100.00;46293.03;4994387;28;20214;-84
2023/12/13 03:59:57;;;;;;;47.57;21.67;;;;;;;-141.97;100.00;46289.19;4993829;28;20419;-84
2023/12/13 04:02:22;;;;;;;39.33;19.20;;;;;;;-141.97;100.00;46195.06;4993938;28;20172;-84
2023/12/13 04:04:48;;;;;;;37.03;18.10;;;;;;;-141.97;100.00;46293.03;4994209;28;20164;-88
2023/12/13 04:07:13;;;;;;;34.37;15.83;;;;;;;-141.97;100.00;46193.13;4994115;28;20684;-87
2023/12/13 04:09:39;;;;;;;35.57;16.30;;;;;;;-141.97;100.00;46446.75;4985318;28;20182;-88
2023/12/13 04:12:04;;;;;;;35.00;16.13;;;;;;;-141.97;100.00;46173.91;5019089;28;20159;-86
2023/12/13 04:14:30;;;;;;;33.67;15.10;;;;;;;-141.97;100.00;46112.44;4997268;28;20186;-86
2023/12/13 04:16:55;;;;;;;34.07;14.63;;;;;;;-141.97;100.00;46631.22;5003060;28;20190;-87
2023/12/13 04:19:21;;;;;;;32.77;13.87;;;;;;;-141.97;100.00;46164.31;5000516;28;20628;-87
2023/12/13 04:21:46;;;;;;;30.30;14.80;;;;;;;-141.97;100.00;46102.81;5000627;28;20675;-87
2023/12/13 04:24:12;;;;;;;34.77;14.57;;;;;;;-141.97;100.00;46661.97;4975592;28;20179;-87
2023/12/13 04:26:39;;;;;;;31.73;14.60;;;;;;;-141.97;100.00;46435.22;4993837;28;20198;-86
2023/12/13 04:29:04;;;;;;;33.30;14.77;;;;;;;-141.97;100.00;45976.03;4976088;28;20258;-85
2023/12/13 04:31:30;;;;;;;32.67;15.57;;;;;;;-141.97;100.00;46293.03;4993431;28;20538;-86
2023/12/13 04:33:55;;;;;;;30.67;14.33;;;;;;;-141.97;100.00;46625.44;4976084;28;20183;-88
2023/12/13 04:36:21;;;;;;;24.40;12.20;;;;;;;-141.97;100.00;46150.84;4993749;28;20163;-88
2023/12/13 04:38:46;;;;;;;35.17;13.80;;;;;;;-141.97;100.00;46079.78;4993588;28;20168;-88
2023/12/13 04:41:11;;;;;;;29.70;12.47;;;;;;;-141.97;100.00;46262.28;4993465;28;20172;-87
2023/12/13 04:43:37;;;;;;;30.80;13.00;;;;;;;-141.97;100.00;46166.22;4976370;28;20600;-87
2023/12/13 04:46:02;;;;;;;27.97;13.33;;;;;;;-141.97;100.00;46596.63;4992940;28;20195;-88
2023/12/13 04:48:28;;;;;;;26.33;12.50;;;;;;;-141.97;100.00;46185.44;4975455;28;20214;-86
2023/12/13 04:50:53;;;;;;;27.87;13.57;;;;;;;-141.97;100.00;46592.78;4992960;28;20546;-88
2023/12/13 04:53:19;;;;;;;30.37;14.20;;;;;;;-141.97;100.00;46465.97;4993149;28;20190;-84
2023/12/13 04:55:44;;;;;;;29.07;14.03;;;;;;;-141.97;100.00;46638.91;4992859;28;20180;-84
2023/12/13 04:58:10;;;;;;;27.20;13.50;;;;;;;-141.97;100.00;46291.13;4993052;28;20540;-83
2023/12/13 05:00:35;;;;;;;33.93;14.97;;;;;;;-141.97;100.00;46300.72;4992762;28;20172;-84
2023/12/13 05:03:01;;;;;;;34.60;16.17;;;;;;;-141.97;100.00;46293.03;4975336;28;20665;-84
2023/12/13 05:05:26;;;;;;;39.80;16.23;;;;;;;-141.97;100.00;46300.72;4975173;28;20361;-84
2023/12/13 05:07:52;;;;;;;29.27;13.50;;;;;;;-141.97;100.00;46258.44;4992474;28;20175;-84
2023/12/13 05:10:17;;;;;;;29.30;14.47;;;;;;;-141.97;100.00;46193.13;4992669;28;20325;-83
2023/12/13 05:12:43;;;;;;;28.07;13.10;;;;;;;-141.97;100.00;46256.53;4975221;28;20262;-87
2023/12/13 05:15:08;;;;;;;28.80;13.20;;;;;;;-141.97;100.00;46669.63;4993091;28;20167;-86
2023/12/13 05:17:34;;;;;;;29.50;13.83;;;;;;;-141.97;100.00;46112.44;4991592;28;20605;-87
2023/12/13 05:19:59;;;;;;;29.63;14.10;;;;;;;-141.97;100.00;46237.31;4992432;28;20175;-86
2023/12/13 05:22:25;;;;;;;31.90;15.27;;;;;;;-141.97;100.00;46300.72;4992714;28;20174;-87
2023/12/13 05:24:50;;;;;;;35.30;15.27;;;;;;;-141.97;100.00;46279.59;5002254;28;20172;-88
2023/12/13 05:27:16;;;;;;;34.27;15.33;;;;;;;-141.97;100.00;46269.97;4991707;28;20216;-88
2023/12/13 05:29:44;;;;;;;32.30;17.17;;;;;;;-141.97;100.00;46650.44;4987744;28;20179;-87
2023/12/13 05:32:10;;;;;;;33.60;16.13;;;;;;;-141.97;100.00;46054.81;4978385;28;20244;-87
2023/12/13 05:34:35;;;;;;;34.73;15.73;;;;;;;-141.97;100.00;46596.63;4977060;28;20530;-88
2023/12/13 05:37:05;;;;;;;49.70;25.60;;;;;;;-141.97;100.00;46179.69;4993811;28;20171;-88
2023/12/13 05:39:31;;;;;;;45.83;23.37;;;;;;;-141.97;100.00;46243.09;4976289;28;20179;-89
2023/12/13 05:41:56;;;;;;;42.43;23.03;;;;;;;-141.97;100.00;46581.25;4994296;28;20414;-88
2023/12/13 05:44:22;;;;;;;44.83;21.53;;;;;;;-141.97;100.00;46293.03;4997959;28;20522;-87
2023/12/13 05:46:48;;;;;;;57.07;26.03;;;;;;;-141.97;100.00;46185.44;4994572;28;20645;-89
2023/12/13 05:49:15;;;;;;;175.73;70.97;;;;;;;-141.97;100.00;46535.13;4994952;28;20602;-88
2023/12/13 05:51:40;;;;;;;254.07;118.77;;;;;;;-141.97;100.00;46112.44;4976053;28;20763;-89
2023/12/13 05:54:06;;;;;;;276.03;123.60;;;;;;;-141.97;100.00;46293.03;4977902;28;20415;-89
2023/12/13 05:56:31;;;;;;;151.50;63.03;;;;;;;-141.97;100.00;46087.47;4993885;28;20250;-89
2023/12/13 05:58:56;;;;;;;130.00;54.77;;;;;;;-141.97;100.00;46181.59;4993386;28;20155;-89
2023/12/13 06:01:22;;;;;;;111.27;47.00;;;;;;;-141.97;100.00;45966.44;4980714;28;20167;-88
2023/12/13 06:03:48;;;;;;;98.37;40.87;;;;;;;-141.97;100.00;46104.75;4997230;28;20194;-88
2023/12/13 06:06:13;;;;;;;93.93;41.27;;;;;;;-141.97;100.00;46070.16;4993818;28;20222;-87
2023/12/13 06:08:40;;;;;;;83.67;39.27;;;;;;;-141.97;100.00;46504.38;4975294;28;20326;-87
2023/12/13 06:11:07;;;;;;;113.23;46.20;;;;;;;-141.97;100.00;46548.59;4975065;28;20199;-87
2023/12/13 06:13:32;;;;;;;107.87;49.37;;;;;;;-141.97;100.00;46275.75;4976412;28;20411;-87
2023/12/13 06:15:58;;;;;;;94.50;40.67;;;;;;;-141.97;100.00;46133.56;4992442;28;20758;-87
2023/12/13 06:18:23;;;;;;;91.10;43.17;;;;;;;-141.97;100.00;46198.91;4992287;28;20172;-88
2023/12/13 06:20:49;;;;;;;95.77;42.80;;;;;;;-141.97;100.00;46104.75;4975210;28;20210;-87
2023/12/13 06:23:14;;;;;;;97.10;45.83;;;;;;;-141.97;100.00;46250.78;4992670;28;20174;-87
2023/12/13 06:25:39;;;;;;;87.30;38.77;;;;;;;-141.97;100.00;46152.78;4974220;28;20723;-87
2023/12/13 06:28:05;;;;;;;81.40;33.70;;;;;;;-141.97;100.00;46650.44;4993530;28;20696;-87
2023/12/13 06:30:30;;;;;;;81.67;33.37;;;;;;;-141.97;100.00;46204.66;4992150;28;20170;-87
2023/12/13 06:32:56;;;;;;;82.13;34.70;;;;;;;-141.97;100.00;46258.44;4999120;28;20198;-87
2023/12/13 06:35:21;;;;;;;93.37;42.13;;;;;;;-141.97;100.00;46523.59;5000942;28;20175;-88
2023/12/13 06:37:47;;;;;;;90.13;38.17;;;;;;;-141.97;100.00;46619.69;5002433;28;20163;-87
2023/12/13 06:40:15;;;;;;;107.23;49.07;;;;;;;-141.97;100.00;46212.34;4978360;28;20618;-88
2023/12/13 06:42:41;;;;;;;95.33;43.80;;;;;;;-141.97;100.00;46273.81;4975008;28;20175;-88
2023/12/13 06:45:08;;;;;;;93.23;40.43;;;;;;;-141.97;100.00;46256.53;4974618;28;21002;-87
2023/12/13 06:47:34;;;;;;;85.33;39.57;;;;;;;-141.97;100.00;46254.59;4977600;28;20816;-87
2023/12/13 06:49:59;;;;;;;86.37;39.83;;;;;;;-141.97;100.00;46245.00;4978261;28;20513;-88
2023/12/13 06:52:25;;;;;;;104.07;49.30;;;;;;;-141.97;100.00;46492.88;4995828;28;20242;-88
2023/12/13 06:54:50;;;;;;;105.20;45.30;;;;;;;-141.97;100.00;46166.22;4996190;28;20186;-87
2023/12/13 06:57:16;;;;;;;108.50;47.57;;;;;;;-141.97;100.00;46231.56;4996613;28;20168;-90
2023/12/13 06:59:42;;;;;;;111.40;47.80;;;;;;;-141.97;100.00;46585.09;4979238;28;20246;-92
2023/12/13 07:02:07;;;;;;;109.70;47.57;;;;;;;-141.97;100.00;46204.66;4979616;28;20623;-88
2023/12/13 07:04:33;;;;;;;86.27;39.97;;;;;;;-141.97;100.00;46560.13;4995540;28;20255;-89
2023/12/13 07:07:01;;;;;;;106.90;45.17;;;;;;;-141.97;100.00;46027.91;4998536;28;20210;-90
2023/12/13 07:09:27;;;;;;;261.50;112.73;;;;;;;-141.97;100.00;46097.06;4980249;28;20202;-92
2023/12/13 07:11:52;;;;;;;410.07;180.73;;;;;;;-141.97;100.00;46143.19;4979893;28;20807;-90
2023/12/13 07:14:18;;;;;;;346.97;143.77;;;;;;;-141.97;100.00;46099.00;4984617;28;20667;-89
2023/12/13 07:16:43;;;;;;;321.37;130.27;;;;;;;-141.97;100.00;46243.09;4981080;28;20262;-89
2023/12/13 07:19:10;;;;;;;259.20;102.03;;;;;;;-141.97;100.00;46164.31;4980645;28;20175;-91
2023/12/13 07:21:35;;;;;;;150.90;65.77;;;;;;;-141.97;100.00;46123.97;4979536;28;20171;-91
2023/12/13 07:24:02;;;;;;;157.63;69.37;;;;;;;-141.97;100.00;46512.06;4996761;28;20418;-92
2023/12/13 07:26:27;;;;;;;159.27;70.53;;;;;;;-141.97;100.00;46062.47;4979174;28;20207;-91
2023/12/13 07:28:52;;;;;;;193.10;83.67;;;;;;;-141.97;100.00;46214.25;4981421;28;20793;-90
2023/12/13 07:31:18;;;;;;;168.93;74.43;;;;;;;-141.97;100.00;46223.88;4996428;28;20700;-90
2023/12/13 07:33:43;;;;;;;147.00;64.93;;;;;;;-141.97;100.00;46235.41;4999490;28;20168;-90
2023/12/13 07:36:11;;;;;;;153.33;60.63;;;;;;;-141.97;100.00;46168.16;4983710;28;20209;-89
2023/12/13 07:38:36;;;;;;;148.87;62.53;;;;;;;-141.97;100.00;46173.91;4998389;28;20180;-90
2023/12/13 07:41:02;;;;;;;149.97;61.23;;;;;;;-141.97;100.00;45972.19;4996367;28;20504;-90
2023/12/13 07:43:28;;;;;;;154.03;59.87;;;;;;;-141.97;100.00;45943.38;4983497;28;20186;-91
2023/12/13 07:45:54;;;;;;;132.50;54.87;;;;;;;-141.97;100.00;46099.00;4982487;28;20213;-91
2023/12/13 07:48:23;;;;;;;70.73;33.17;;;;;;;-141.97;100.00;46125.88;4978383;28;20563;-90
2023/12/13 07:50:49;;;;;;;65.10;30.30;;;;;;;-141.97;100.00;46062.47;4977805;28;20582;-90
2023/12/13 07:53:15;;;;;;;67.00;30.50;;;;;;;-141.97;100.00;46039.44;4981392;28;20990;-89
2023/12/13 07:55:40;;;;;;;120.23;51.27;;;;;;;-141.97;100.00;46293.03;4982733;28;20216;-91
2023/12/13 07:58:06;;;;;;;86.57;39.13;;;;;;;-141.97;100.00;46010.63;5012604;28;20160;-90
2023/12/13 08:00:31;;;;;;;107.77;49.10;;;;;;;-141.97;100.00;45977.94;5018750;28;20179;-91
2023/12/13 08:02:57;;;;;;;142.27;63.37;;;;;;;-141.97;100.00;46479.41;4998841;28;20183;-90
2023/12/13 08:05:23;;;;;;;111.07;49.27;;;;;;;-141.97;100.00;46100.91;4995729;28;20199;-90
2023/12/13 08:07:49;;;;;;;102.17;49.33;;;;;;;-141.97;100.00;46099.00;4979547;28;20195;-90
2023/12/13 08:10:15;;;;;;;135.73;63.90;;;;;;;-141.97;100.00;45972.19;4997632;28;20167;-89
2023/12/13 08:12:43;;;;;;;173.10;77.40;;;;;;;-141.97;100.00;46058.63;4980471;28;20242;-91
2023/12/13 08:15:10;;;;;;;154.63;70.57;;;;;;;-141.97;100.00;46116.28;4980030;28;20267;-90
2023/12/13 08:17:35;;;;;;;131.60;62.03;;;;;;;-141.97;100.00;45889.56;4979429;28;20620;-90
2023/12/13 08:20:01;;;;;;;121.70;58.70;;;;;;;-141.97;100.00;46158.53;5000571;28;20253;-91
2023/12/13 08:22:26;;;;;;;194.20;95.20;;;;;;;-141.97;100.00;46004.84;4983859;28;20199;-89
2023/12/13 08:24:52;;;;;;;158.73;77.20;;;;;;;-141.97;100.00;45970.25;5003003;28;20174;-90
2023/12/13 08:27:17;;;;;;;148.97;69.83;;;;;;;-141.97;100.00;46360.28;4985378;28;20272;-89
2023/12/13 08:29:43;;;;;;;159.67;73.63;;;;;;;-141.97;100.00;46039.44;5006159;28;20167;-89
2023/12/13 08:32:08;;;;;;;176.73;88.67;;;;;;;-141.97;100.00;45926.06;4999606;28;20175;-88
2023/12/13 08:37:17;;;;;;;179.10;97.00;;;;;;;-141.97;100.00;45928.00;5272095;23;20239;-90
2023/12/13 08:42:28;;;;;;;144.50;70.70;;;;;;;-141.97;100.00;45870.38;4934871;29;20195;-92
2023/12/13 08:44:54;;;;;;;143.13;63.47;;;;;;;-141.97;100.00;46123.97;4919392;29;20194;-91
2023/12/13 08:47:22;;;;;;;143.47;67.80;;;;;;;-141.97;100.00;45997.16;4916919;29;20224;-90
2023/12/13 08:49:48;;;;;;;146.80;71.30;;;;;;;-141.97;100.00;46383.34;4899455;29;20174;-89
2023/12/13 08:52:16;;;;;;;142.03;69.70;;;;;;;-141.97;100.00;45941.44;4916983;29;20162;-91
2023/12/13 08:54:41;;;;;;;129.53;63.03;;;;;;;-141.97;100.00;45993.31;4918866;29;20189;-87
2023/12/13 08:57:06;;;;;;;113.97;49.73;;;;;;;-141.97;100.00;45956.81;4922392;29;20181;-88
2023/12/13 08:59:32;;;;;;;117.53;51.33;;;;;;;-141.97;100.00;45993.31;4927803;29;20235;-90
2023/12/13 09:01:58;;;;;;;110.67;48.17;;;;;;;-141.97;100.00;46229.63;4919221;29;20244;-89
2023/12/13 09:04:23;;;;;;;194.27;81.43;;;;;;;-141.97;100.00;46123.97;4902357;29;20332;-91
2023/12/13 09:06:48;;;;;;;115.07;57.10;;;;;;;-141.97;100.00;45951.06;4915171;29;20357;-89
2023/12/13 09:09:14;;;;;;;110.87;53.33;;;;;;;-141.97;100.00;46079.78;4899704;29;20182;-91
2023/12/13 09:11:39;;;;;;;150.63;78.73;;;;;;;-141.97;100.00;45943.38;4899317;29;20188;-90
2023/12/13 09:14:05;;;;;;;140.30;69.57;;;;;;;-141.97;100.00;45801.22;4899707;29;20598;-89
2023/12/13 09:16:30;;;;;;;135.67;63.47;;;;;;;-141.97;100.00;46523.59;4899447;29;20284;-89
2023/12/13 09:18:56;;;;;;;109.27;48.83;;;;;;;-141.97;100.00;45976.03;4928518;28;20282;-88
2023/12/13 09:21:23;;;;;;;68.97;32.40;;;;;;;-141.97;100.00;46312.25;4957672;28;20175;-89
2023/12/13 09:23:48;;;;;;;62.23;30.17;;;;;;;-141.97;100.00;46035.59;4957447;28;20188;-92
2023/12/13 09:26:14;;;;;;;179.00;70.00;;;;;;;-141.97;100.00;45866.53;4957626;28;20218;-90
2023/12/13 09:28:40;;;;;;;72.20;33.47;;;;;;;-141.97;100.00;46016.38;4957035;28;20653;-90
2023/12/13 09:31:07;;;;;;;66.97;30.30;;;;;;;-141.97;100.00;45885.72;4957082;28;20167;-91
2023/12/13 09:33:33;;;;;;;63.77;29.13;;;;;;;-141.97;100.00;45849.25;4957210;28;20568;-90
2023/12/13 09:35:58;;;;;;;62.73;31.23;;;;;;;-141.97;100.00;46033.66;4974546;28;20157;-90
2023/12/13 09:38:24;;;;;;;70.47;31.33;;;;;;;-141.97;100.00;46039.44;4959094;28;20278;-90
2023/12/13 09:40:49;;;;;;;62.80;31.23;;;;;;;-141.97;100.00;46575.50;4977660;28;20175;-90
2023/12/13 09:43:15;;;;;;;71.33;30.57;;;;;;;-141.97;100.00;46158.53;4978736;28;20179;-88
2023/12/13 09:45:41;;;;;;;70.27;35.67;;;;;;;-141.97;100.00;46097.06;4990446;28;20238;-90
2023/12/13 09:48:07;;;;;;;63.53;30.57;;;;;;;-141.97;100.00;45993.31;4980746;28;20621;-91
2023/12/13 09:50:36;;;;;;;124.97;49.53;;;;;;;-141.97;100.00;46279.59;4994500;28;20208;-90
2023/12/13 09:53:04;;;;;;;65.20;31.17;;;;;;;-141.97;100.00;46135.50;4976542;28;20633;-90
2023/12/13 09:55:30;;;;;;;103.47;43.87;;;;;;;-141.97;100.00;46446.75;4975612;28;20251;-89
2023/12/13 09:57:55;;;;;;;119.43;49.63;;;;;;;-141.97;100.00;45889.56;4978182;28;20251;-89
2023/12/13 10:00:21;;;;;;;70.13;31.93;;;;;;;-141.97;100.00;46102.81;4975962;28;20182;-89
2023/12/13 10:02:49;;;;;;;61.57;30.83;;;;;;;-141.97;100.00;46377.56;4992543;28;20174;-91
2023/12/13 10:05:22;;;;;;;64.47;32.30;;;;;;;-141.97;100.00;46425.63;4993423;28;20195;-90
2023/12/13 10:07:48;;;;;;;60.47;30.37;;;;;;;-141.97;100.00;46123.97;4993170;28;20559;-90
2023/12/13 10:10:16;;;;;;;55.17;27.37;;;;;;;-141.97;100.00;46027.91;4993594;28;20159;-92
2023/12/13 10:12:42;;;;;;;50.33;26.20;;;;;;;-141.97;100.00;46129.72;4992740;28;20492;-90
2023/12/13 10:15:14;;;;;;;53.27;26.10;;;;;;;-141.97;100.00;46123.97;4992233;28;20172;-89
2023/12/13 10:17:39;;;;;;;51.20;26.37;;;;;;;-141.97;100.00;46325.69;4975346;28;20183;-90
2023/12/13 10:20:06;;;;;;;55.77;26.63;;;;;;;-141.97;100.00;45974.09;4974638;28;20187;-89
2023/12/13 10:22:33;;;;;;;51.37;26.30;;;;;;;-141.97;100.00;45997.16;4969921;28;20192;-89
2023/12/13 10:24:58;;;;;;;55.20;27.23;;;;;;;-141.97;100.00;46102.81;4955957;28;20172;-90
2023/12/13 10:27:24;;;;;;;57.93;29.00;;;;;;;-141.97;100.00;46099.00;4955242;28;20214;-89
2023/12/13 10:29:51;;;;;;;72.80;35.40;;;;;;;-141.97;100.00;45914.56;4972274;28;20168;-89
2023/12/13 10:32:18;;;;;;;69.87;30.40;;;;;;;-141.97;100.00;46502.47;4956272;28;20172;-91
2023/12/13 10:34:44;;;;;;;66.17;32.00;;;;;;;-141.97;100.00;45904.94;4955643;28;20702;-89
2023/12/13 10:37:12;;;;;;;60.47;30.90;;;;;;;-141.97;100.00;46062.47;4972522;28;20223;-87
2023/12/13 10:39:42;;;;;;;58.60;29.47;;;;;;;-141.97;100.00;46066.31;4972629;28;20249;-88
2023/12/13 10:42:09;;;;;;;57.83;28.63;;;;;;;-141.97;100.00;46089.38;4955661;28;20612;-88
2023/12/13 10:44:35;;;;;;;63.77;30.63;;;;;;;-141.97;100.00;46012.53;4955610;28;20176;-90
2023/12/13 10:47:03;;;;;;;58.03;28.67;;;;;;;-141.97;100.00;46141.25;4972284;28;20191;-89
2023/12/13 10:49:29;;;;;;;62.33;30.10;;;;;;;-141.97;100.00;45914.56;4957311;28;20187;-90
2023/12/13 10:51:56;;;;;;;63.83;33.63;;;;;;;-141.97;100.00;46139.34;4960224;28;20200;-89